Time;durP1;ratioP1;P1;durP2;ratioP2;P2;SDS_P1;SDS_P2;PMS_P1;PMS_P2;Temp;Humidity;BMP_temperature;BMP_pressure;BME280_temperature;BME280_humidity;BME280_pressure;Samples;Min_cycle;Max_cycle;Signal;HPM_P1;HPM_P2
2021/12/22 00:00:38;;;;;;;11.95;7.65;;;-2.40;99.90;;;;;;4810386;29;20073;-79
2021/12/22 00:03:06;;;;;;;11.57;7.15;;;-2.30;99.90;;;;;;4809537;29;20065;-79
2021/12/22 00:05:33;;;;;;;10.82;7.47;;;-2.30;99.90;;;;;;4790387;29;20381;-79
2021/12/22 00:07:59;;;;;;;8.32;5.88;;;-2.30;99.90;;;;;;4808440;29;20778;-79
2021/12/22 00:10:25;;;;;;;5.45;3.58;;;-2.40;99.90;;;;;;4826078;29;20069;-79
2021/12/22 00:12:51;;;;;;;8.43;5.10;;;-2.40;99.90;;;;;;4807985;29;20046;-79
2021/12/22 00:15:17;;;;;;;6.72;4.88;;;-2.50;99.90;;;;;;4802014;29;20085;-79
2021/12/22 00:17:44;;;;;;;7.43;4.82;;;-2.50;99.90;;;;;;4826678;29;20045;-79
2021/12/22 00:20:12;;;;;;;7.13;4.85;;;-2.60;99.90;;;;;;4810283;29;20102;-79
2021/12/22 00:22:38;;;;;;;13.05;6.28;;;-2.70;99.90;;;;;;4814626;29;20034;-79
2021/12/22 00:25:04;;;;;;;9.80;6.28;;;-2.60;99.90;;;;;;4804445;29;20038;-79
2021/12/22 00:27:30;;;;;;;7.95;5.40;;;-2.60;99.90;;;;;;4810828;29;20045;-79
2021/12/22 00:29:56;;;;;;;11.05;7.38;;;-2.70;99.90;;;;;;4801142;29;20407;-79
2021/12/22 00:32:23;;;;;;;10.95;7.15;;;-2.60;99.90;;;;;;4823741;29;20041;-78
2021/12/22 00:34:53;;;;;;;12.30;8.13;;;-2.60;99.90;;;;;;4810613;29;20500;-78
2021/12/22 00:37:25;;;;;;;13.68;7.35;;;-2.50;99.90;;;;;;4805672;29;20047;-79
2021/12/22 00:39:52;;;;;;;9.73;6.60;;;-2.50;99.90;;;;;;4818436;29;20046;-79
2021/12/22 00:42:19;;;;;;;11.40;7.20;;;-2.50;99.90;;;;;;4811186;29;20056;-79
2021/12/22 00:44:49;;;;;;;9.90;6.40;;;-2.50;99.90;;;;;;4804959;29;20046;-79
2021/12/22 00:47:15;;;;;;;8.98;5.30;;;-2.60;99.90;;;;;;4805159;29;20038;-79
2021/12/22 00:49:41;;;;;;;6.93;4.50;;;-2.60;99.90;;;;;;4809254;29;20108;-80
2021/12/22 00:52:06;;;;;;;7.15;4.53;;;-2.60;99.90;;;;;;4820729;29;20452;-79
2021/12/22 00:54:33;;;;;;;7.38;5.03;;;-2.70;99.90;;;;;;4810876;29;20069;-79
2021/12/22 00:57:04;;;;;;;6.97;4.55;;;-2.80;99.90;;;;;;4844790;29;20064;-79
2021/12/22 00:59:31;;;;;;;6.40;4.40;;;-2.90;99.90;;;;;;4831542;29;20054;-79
2021/12/22 01:01:57;;;;;;;6.85;4.90;;;-2.90;99.90;;;;;;4823498;29;20041;-79
2021/12/22 01:04:23;;;;;;;6.43;4.30;;;-2.80;99.90;;;;;;4796342;29;20435;-79
2021/12/22 01:06:48;;;;;;;9.10;4.68;;;-2.90;99.90;;;;;;4811651;29;20110;-79
2021/12/22 01:09:14;;;;;;;5.97;4.18;;;-2.90;99.90;;;;;;4802492;29;20050;-79
2021/12/22 01:11:40;;;;;;;7.47;3.70;;;-2.90;99.90;;;;;;4818584;29;20081;-79
2021/12/22 01:14:06;;;;;;;6.85;4.38;;;-3.00;99.90;;;;;;4795730;29;20054;-78
2021/12/22 01:16:31;;;;;;;5.93;4.32;;;-3.10;99.90;;;;;;4803766;29;20041;-78
2021/12/22 01:19:01;;;;;;;6.05;4.00;;;-3.20;99.90;;;;;;4826645;29;20436;-79
2021/12/22 01:21:45;;;;;;;8.13;4.00;;;-3.20;99.90;;;;;;4826336;29;20046;-80
2021/12/22 01:24:21;;;;;;;5.82;4.15;;;-3.20;99.90;;;;;;4793079;29;20046;-79
2021/12/22 01:26:52;;;;;;;5.13;3.95;;;-3.30;99.90;;;;;;4783769;29;20537;-79
2021/12/22 01:29:18;;;;;;;5.10;3.72;;;-3.40;99.90;;;;;;4808835;29;20143;-80
2021/12/22 01:31:44;;;;;;;7.95;4.40;;;-3.40;99.90;;;;;;4819371;29;20034;-79
2021/12/22 01:34:10;;;;;;;6.50;4.20;;;-3.30;99.90;;;;;;4811186;29;20452;-79
2021/12/22 01:36:36;;;;;;;5.53;3.28;;;-3.40;99.90;;;;;;4826277;29;20042;-79
2021/12/22 01:39:03;;;;;;;3.80;3.00;;;-3.30;99.90;;;;;;4811396;29;20484;-80
2021/12/22 01:41:29;;;;;;;4.00;3.38;;;-3.30;99.90;;;;;;4826573;29;20425;-80
2021/12/22 01:43:55;;;;;;;4.60;3.08;;;-3.40;99.90;;;;;;4796091;29;20042;-80
2021/12/22 01:49:10;;;;;;;5.10;3.72;;;-3.50;99.90;;;;;;4826372;29;20500;-79
2021/12/22 01:52:02;;;;;;;5.57;3.97;;;-3.50;99.90;;;;;;4811109;29;20507;-80
2021/12/22 01:55:03;;;;;;;4.80;3.72;;;-3.60;99.90;;;;;;4808032;29;20457;-80
2021/12/22 01:57:30;;;;;;;6.18;3.80;;;-3.60;99.90;;;;;;4795559;29;20050;-79
2021/12/22 01:59:56;;;;;;;5.97;3.67;;;-3.70;99.90;;;;;;4807796;29;20042;-79
2021/12/22 02:02:22;;;;;;;8.43;5.50;;;-3.60;99.90;;;;;;4807926;29;20457;-79
2021/12/22 02:04:48;;;;;;;9.98;5.65;;;-3.50;99.90;;;;;;4808103;29;20057;-79
2021/12/22 02:07:14;;;;;;;11.55;6.50;;;-3.40;99.90;;;;;;4820869;29;20082;-78
2021/12/22 02:10:01;;;;;;;;;;;-3.30;99.90;;;;;;4839523;29;20066;-78
2021/12/22 02:12:29;;;;;;;13.02;9.27;;;-3.20;99.90;;;;;;4826580;29;20374;-78
2021/12/22 02:14:56;;;;;;;15.63;8.85;;;-3.10;99.90;;;;;;4816710;29;20145;-78
2021/12/22 02:17:21;;;;;;;14.65;9.38;;;-3.00;99.90;;;;;;4836277;29;20483;-78
2021/12/22 02:19:48;;;;;;;14.32;9.88;;;-2.90;99.90;;;;;;4827737;29;20089;-78
2021/12/22 02:22:17;;;;;;;15.40;8.90;;;-2.80;99.90;;;;;;4841393;29;20072;-79
2021/12/22 02:24:57;;;;;;;13.63;8.70;;;-2.80;99.90;;;;;;4839469;29;20085;-78
2021/12/22 02:27:32;;;;;;;15.38;9.77;;;-2.70;99.90;;;;;;4824795;29;20046;-78
2021/12/22 02:30:02;;;;;;;11.18;7.60;;;-2.70;99.90;;;;;;4842090;29;20085;-78
2021/12/22 02:35:03;;;;;;;13.27;9.27;;;-2.80;99.90;;;;;;4841916;29;20509;-78
2021/12/22 02:37:30;;;;;;;14.43;8.75;;;-2.80;99.90;;;;;;4828309;29;20046;-78
2021/12/22 02:40:10;;;;;;;12.02;8.70;;;-2.70;99.90;;;;;;4798001;29;20132;-78
2021/12/22 02:42:36;;;;;;;13.82;8.40;;;-2.80;99.90;;;;;;4814656;29;20042;-78
2021/12/22 02:45:11;;;;;;;11.18;7.85;;;-2.80;99.90;;;;;;4816353;29;20516;-78
2021/12/22 02:47:36;;;;;;;14.98;8.82;;;-2.80;99.90;;;;;;4824151;29;20432;-78
2021/12/22 02:50:07;;;;;;;15.43;8.98;;;-2.80;99.90;;;;;;4841217;29;20046;-78
2021/12/22 02:52:51;;;;;;;14.15;9.63;;;-2.80;99.90;;;;;;4825355;29;20057;-77
2021/12/22 02:55:17;;;;;;;16.23;9.55;;;-2.80;99.90;;;;;;4824703;29;20141;-78
2021/12/22 02:57:47;;;;;;;15.70;9.05;;;-2.80;99.90;;;;;;4827093;29;20181;-78
2021/12/22 03:00:49;;;;;;;15.60;8.68;;;-2.80;99.90;;;;;;4839705;29;20117;-78
2021/12/22 03:03:47;;;;;;;15.65;9.40;;;-2.80;99.90;;;;;;4837724;29;20057;-78
2021/12/22 03:06:19;;;;;;;13.95;8.73;;;-2.80;99.90;;;;;;4815694;29;20129;-77
2021/12/22 03:08:44;;;;;;;13.45;8.40;;;-2.80;99.90;;;;;;4799519;29;20057;-78
2021/12/22 03:11:10;;;;;;;13.65;9.25;;;-2.80;99.90;;;;;;4839647;29;20214;-78
2021/12/22 03:13:36;;;;;;;14.27;8.90;;;-2.80;99.90;;;;;;4828335;29;20053;-78
2021/12/22 03:16:02;;;;;;;15.85;10.07;;;-2.90;99.90;;;;;;4840072;29;20501;-78
2021/12/22 03:18:27;;;;;;;16.73;10.05;;;-2.80;99.90;;;;;;4841083;29;20038;-78
2021/12/22 03:21:02;;;;;;;18.33;9.55;;;-2.80;99.90;;;;;;4841007;29;20057;-78
2021/12/22 03:23:28;;;;;;;15.70;9.23;;;-2.80;99.90;;;;;;4846111;29;20061;-78
2021/12/22 03:25:53;;;;;;;14.32;8.80;;;-2.80;99.90;;;;;;4844118;29;20090;-79
2021/12/22 03:28:19;;;;;;;12.20;8.23;;;-2.90;99.90;;;;;;4827841;29;20045;-78
2021/12/22 03:30:45;;;;;;;14.75;8.05;;;-2.90;99.90;;;;;;4843087;29;20046;-78
2021/12/22 03:33:10;;;;;;;13.73;8.68;;;-2.90;99.90;;;;;;4829259;29;20087;-78
2021/12/22 03:35:38;;;;;;;13.23;9.20;;;-2.90;99.90;;;;;;4851636;29;20441;-78
2021/12/22 03:38:04;;;;;;;15.88;10.65;;;-2.90;99.90;;;;;;4835566;29;20043;-78
2021/12/22 03:40:30;;;;;;;14.82;10.10;;;-2.90;99.90;;;;;;4838033;29;20037;-78
2021/12/22 03:42:56;;;;;;;16.20;9.77;;;-2.90;99.90;;;;;;4822487;29;20034;-78
2021/12/22 03:45:22;;;;;;;21.38;12.13;;;-2.90;99.90;;;;;;4840809;29;20065;-78
2021/12/22 03:47:48;;;;;;;15.77;10.32;;;-2.90;99.90;;;;;;4838310;29;20042;-78
2021/12/22 03:50:15;;;;;;;;;;;-2.90;99.90;;;;;;4819231;29;20053;-78
2021/12/22 03:52:41;;;;;;;14.65;9.43;;;-2.90;99.90;;;;;;4845337;29;20415;-78
2021/12/22 03:55:07;;;;;;;16.83;10.50;;;-2.90;99.90;;;;;;4808406;29;20125;-78
2021/12/22 03:57:33;;;;;;;17.23;10.30;;;-3.00;99.90;;;;;;4820592;29;20482;-78
2021/12/22 04:00:00;;;;;;;21.98;10.75;;;-3.00;99.90;;;;;;4825392;29;20061;-78
2021/12/22 04:02:28;;;;;;;20.98;12.10;;;-3.00;99.90;;;;;;4818534;29;20045;-78
2021/12/22 04:04:53;;;;;;;18.50;11.07;;;-3.00;99.90;;;;;;4840502;29;20108;-78
2021/12/22 04:07:19;;;;;;;19.27;10.40;;;-3.00;99.90;;;;;;4803936;29;20576;-78
2021/12/22 04:09:46;;;;;;;15.48;9.20;;;-3.00;99.90;;;;;;4819940;29;20050;-77
2021/12/22 04:12:12;;;;;;;;;;;-3.00;99.90;;;;;;4822313;29;20050;-77
2021/12/22 04:14:38;;;;;;;15.82;9.52;;;-3.00;99.90;;;;;;4821682;29;20253;-76
2021/12/22 04:17:03;;;;;;;17.50;9.63;;;-3.00;99.90;;;;;;4825249;29;20056;-77
2021/12/22 04:19:29;;;;;;;12.50;8.40;;;-3.10;99.90;;;;;;4802878;29;20499;-77
2021/12/22 04:21:55;;;;;;;12.13;7.83;;;-3.10;99.90;;;;;;4796036;29;20403;-77
2021/12/22 04:24:22;;;;;;;15.10;9.20;;;-3.10;99.90;;;;;;4821553;29;20081;-77
2021/12/22 04:26:50;;;;;;;14.07;9.27;;;-3.10;99.90;;;;;;4795918;29;20086;-77
2021/12/22 04:29:16;;;;;;;17.23;9.45;;;-3.10;99.90;;;;;;4818188;29;20085;-77
2021/12/22 04:31:41;;;;;;;15.70;7.97;;;-3.10;99.90;;;;;;4793400;29;20104;-77
2021/12/22 04:34:08;;;;;;;11.25;8.05;;;-3.10;99.90;;;;;;4822652;29;20042;-78
2021/12/22 04:36:39;;;;;;;13.60;8.82;;;-3.10;99.90;;;;;;4818030;29;20085;-77
2021/12/22 04:39:06;;;;;;;13.95;9.18;;;-3.10;99.90;;;;;;4819419;29;20090;-77
2021/12/22 04:41:33;;;;;;;14.32;8.50;;;-3.10;99.90;;;;;;4793170;29;20054;-77
2021/12/22 04:43:59;;;;;;;14.20;8.68;;;-3.10;99.90;;;;;;4788946;29;20493;-77
2021/12/22 04:46:25;;;;;;;16.92;9.48;;;-3.10;99.90;;;;;;4823554;29;20069;-77
2021/12/22 04:48:50;;;;;;;14.43;9.18;;;-3.10;99.90;;;;;;4823911;29;20046;-77
2021/12/22 04:51:29;;;;;;;14.18;8.73;;;-3.10;99.90;;;;;;4829089;29;20058;-76
2021/12/22 04:54:03;;;;;;;17.52;9.82;;;-3.20;99.90;;;;;;4816523;29;20084;-77
2021/12/22 04:56:30;;;;;;;16.23;10.32;;;-3.20;99.90;;;;;;4810721;29;20640;-76
2021/12/22 04:58:55;;;;;;;15.75;10.10;;;-3.20;99.90;;;;;;4820700;29;20480;-77
2021/12/22 05:01:21;;;;;;;13.70;8.60;;;-3.10;99.90;;;;;;4820453;29;20097;-77
2021/12/22 05:03:47;;;;;;;16.27;9.82;;;-3.20;99.90;;;;;;4793849;29;20661;-77
2021/12/22 05:06:12;;;;;;;16.27;9.30;;;-3.20;99.90;;;;;;4813463;29;20046;-76
2021/12/22 05:08:38;;;;;;;15.38;9.13;;;-3.20;99.90;;;;;;4806843;29;20049;-76
2021/12/22 05:11:04;;;;;;;14.05;8.40;;;-3.20;99.90;;;;;;4808595;29;20882;-76
2021/12/22 05:13:30;;;;;;;11.45;7.10;;;-3.20;99.90;;;;;;4817401;29;20050;-76
2021/12/22 05:15:56;;;;;;;15.32;9.35;;;-3.20;99.90;;;;;;4822158;29;20098;-77
2021/12/22 05:20:49;;;;;;;15.15;8.32;;;-3.20;99.90;;;;;;4799962;29;20042;-78
2021/12/22 05:23:16;;;;;;;15.75;8.27;;;-3.20;99.90;;;;;;4808491;29;20074;-77
2021/12/22 05:25:42;;;;;;;15.90;9.85;;;-3.20;99.90;;;;;;4809688;29;20158;-78
2021/12/22 05:28:07;;;;;;;15.38;10.15;;;-3.20;99.90;;;;;;4792515;29;20527;-76
2021/12/22 05:30:33;;;;;;;13.18;8.70;;;-3.30;99.90;;;;;;4786833;29;20050;-78
2021/12/22 05:32:59;;;;;;;14.18;8.68;;;-3.30;99.90;;;;;;4813667;29;20041;-77
2021/12/22 05:35:25;;;;;;;12.85;8.55;;;-3.30;99.90;;;;;;4836605;29;20537;-76
2021/12/22 05:37:50;;;;;;;14.88;8.05;;;-3.30;99.90;;;;;;4823876;29;20224;-76
2021/12/22 05:40:16;;;;;;;14.27;8.00;;;-3.30;99.90;;;;;;4812261;29;20560;-76
2021/12/22 05:42:42;;;;;;;15.07;8.35;;;-3.30;99.90;;;;;;4809811;29;20049;-76
2021/12/22 05:45:09;;;;;;;13.63;9.05;;;-3.30;99.90;;;;;;4799911;29;20046;-76
2021/12/22 05:47:34;;;;;;;12.85;7.82;;;-3.30;99.90;;;;;;4816600;29;20470;-76
2021/12/22 05:50:03;;;;;;;12.10;7.72;;;-3.30;99.90;;;;;;4803083;29;20052;-78
2021/12/22 05:52:29;;;;;;;16.20;9.90;;;-3.40;99.90;;;;;;4784162;29;20463;-78
2021/12/22 05:54:55;;;;;;;13.95;8.60;;;-3.40;99.90;;;;;;4799060;29;20153;-78
2021/12/22 05:57:21;;;;;;;16.60;9.43;;;-3.40;99.90;;;;;;4808758;29;20350;-78
2021/12/22 05:59:47;;;;;;;14.25;9.02;;;-3.40;99.90;;;;;;4802332;29;20056;-78
2021/12/22 06:02:13;;;;;;;15.80;9.38;;;-3.40;99.90;;;;;;4810500;29;20050;-78
2021/12/22 06:04:39;;;;;;;17.00;9.32;;;-3.40;99.90;;;;;;4812111;29;20042;-78
2021/12/22 06:07:08;;;;;;;15.38;8.48;;;-3.40;99.90;;;;;;4822890;29;20134;-78
2021/12/22 06:09:34;;;;;;;13.77;8.43;;;-3.40;99.90;;;;;;4778037;29;20561;-78
2021/12/22 06:12:00;;;;;;;15.50;9.55;;;-3.50;99.90;;;;;;4819486;29;20047;-78
2021/12/22 06:14:26;;;;;;;14.15;8.00;;;-3.50;99.90;;;;;;4808470;29;20050;-78
2021/12/22 06:16:51;;;;;;;13.60;8.20;;;-3.50;99.90;;;;;;4805911;29;20492;-78
2021/12/22 06:19:18;;;;;;;13.48;8.40;;;-3.50;99.90;;;;;;4789308;29;20046;-79
2021/12/22 06:21:46;;;;;;;13.55;8.23;;;-3.50;99.90;;;;;;4792296;29;20061;-79
2021/12/22 06:24:11;;;;;;;16.17;9.05;;;-3.50;99.90;;;;;;4805470;29;20201;-79
2021/12/22 06:26:37;;;;;;;16.33;9.10;;;-3.50;99.90;;;;;;4798278;29;20136;-86
2021/12/22 06:29:03;;;;;;;16.33;9.77;;;-3.50;99.90;;;;;;4775278;29;20303;-79
2021/12/22 06:31:28;;;;;;;19.63;11.10;;;-3.50;99.90;;;;;;4801605;29;20061;-78
2021/12/22 06:33:54;;;;;;;16.65;9.55;;;-3.50;99.90;;;;;;4824515;29;20082;-78
2021/12/22 06:36:20;;;;;;;16.95;9.52;;;-3.60;99.90;;;;;;4793633;29;20040;-79
2021/12/22 06:38:46;;;;;;;20.73;10.00;;;-3.50;99.90;;;;;;4809162;29;20037;-78
2021/12/22 06:41:11;;;;;;;18.02;10.73;;;-3.60;99.90;;;;;;4801119;29;20038;-77
2021/12/22 06:43:37;;;;;;;17.30;10.23;;;-3.60;99.90;;;;;;4809361;29;20220;-78
2021/12/22 06:46:03;;;;;;;21.92;11.35;;;-3.60;99.90;;;;;;4791324;29;20077;-78
2021/12/22 06:48:28;;;;;;;18.55;11.20;;;-3.60;99.90;;;;;;4795208;29;20136;-78
2021/12/22 06:50:54;;;;;;;16.90;10.85;;;-3.60;99.90;;;;;;4822512;29;20093;-78
2021/12/22 06:53:20;;;;;;;14.85;9.43;;;-3.60;99.90;;;;;;4810207;29;20875;-79
2021/12/22 06:55:46;;;;;;;15.90;9.05;;;-3.60;99.90;;;;;;4795087;29;20487;-79
2021/12/22 06:58:12;;;;;;;14.93;9.07;;;-3.70;99.90;;;;;;4825136;29;20506;-79
2021/12/22 07:00:37;;;;;;;18.02;9.85;;;-3.60;99.90;;;;;;4809979;29;20577;-79
2021/12/22 07:03:05;;;;;;;17.35;9.52;;;-3.70;99.90;;;;;;4825328;29;20109;-79
2021/12/22 07:05:31;;;;;;;16.65;10.10;;;-3.70;99.90;;;;;;4824701;29;20496;-78
2021/12/22 07:07:57;;;;;;;;;;;-3.70;99.90;;;;;;4818905;29;20054;-78
2021/12/22 07:10:23;;;;;;;15.75;9.23;;;-3.70;99.90;;;;;;4842532;29;19927;-77
2021/12/22 07:12:48;;;;;;;17.47;9.60;;;-3.70;99.90;;;;;;4827878;29;20504;-78
2021/12/22 07:15:20;;;;;;;17.67;10.27;;;-3.70;99.90;;;;;;4796824;29;20796;-80
2021/12/22 07:17:48;;;;;;;20.85;11.27;;;-3.70;99.90;;;;;;4824648;29;20045;-80
2021/12/22 07:20:14;;;;;;;16.15;9.07;;;-3.70;99.90;;;;;;4827915;29;20081;-80
2021/12/22 07:22:40;;;;;;;;;;;-3.70;99.90;;;;;;4843610;29;20044;-80
2021/12/22 07:25:08;;;;;;;17.88;9.55;;;-3.70;99.90;;;;;;4842593;29;19931;-81
2021/12/22 07:27:38;;;;;;;18.20;10.40;;;-3.70;99.90;;;;;;4803842;29;20125;-80
2021/12/22 07:30:05;;;;;;;21.05;11.25;;;-3.70;99.90;;;;;;4835811;29;20049;-79
2021/12/22 07:32:31;;;;;;;17.10;9.95;;;-3.70;99.90;;;;;;4820181;29;20106;-79
2021/12/22 07:35:06;;;;;;;17.88;10.25;;;-3.70;99.90;;;;;;4826181;29;20042;-79
2021/12/22 07:38:13;;;;;;;21.33;10.93;;;-3.60;99.90;;;;;;4822680;29;20477;-80
2021/12/22 07:40:39;;;;;;;20.95;11.93;;;-3.70;99.90;;;;;;4830019;29;20510;-78
2021/12/22 07:43:05;;;;;;;18.50;10.10;;;-3.60;99.90;;;;;;4794455;29;20034;-79
2021/12/22 07:45:31;;;;;;;19.20;10.00;;;-3.60;99.90;;;;;;4811052;29;20056;-79
2021/12/22 07:47:56;;;;;;;18.90;10.27;;;-3.60;99.90;;;;;;4821797;29;20046;-76
2021/12/22 07:50:23;;;;;;;16.67;9.13;;;-3.60;99.90;;;;;;4811922;29;20047;-79
2021/12/22 07:52:49;;;;;;;17.70;9.65;;;-3.60;99.90;;;;;;4842092;29;20128;-78
2021/12/22 07:55:15;;;;;;;16.90;10.07;;;-3.60;99.90;;;;;;4822109;29;20148;-78
2021/12/22 07:57:41;;;;;;;17.42;9.55;;;-3.60;99.90;;;;;;4835658;29;20049;-79
2021/12/22 08:00:07;;;;;;;17.42;9.75;;;-3.60;99.90;;;;;;4824444;29;20050;-80
2021/12/22 08:02:33;;;;;;;16.67;9.55;;;-3.60;99.90;;;;;;4815873;29;20401;-80
2021/12/22 08:04:59;;;;;;;16.80;10.18;;;-3.60;99.90;;;;;;4840932;29;20101;-80
2021/12/22 08:07:24;;;;;;;18.20;9.20;;;-3.60;99.90;;;;;;4822622;29;20448;-80
2021/12/22 08:09:50;;;;;;;17.60;10.13;;;-3.50;99.90;;;;;;4809233;29;20422;-82
2021/12/22 08:12:16;;;;;;;22.15;11.20;;;-3.50;99.90;;;;;;4810016;29;20105;-79
2021/12/22 08:14:41;;;;;;;17.85;9.75;;;-3.40;99.90;;;;;;4820318;29;20061;-80
2021/12/22 08:17:09;;;;;;;17.20;9.18;;;-3.40;99.90;;;;;;4789062;29;20038;-81
2021/12/22 08:19:34;;;;;;;17.08;9.38;;;-3.40;99.90;;;;;;4811171;29;20042;-81
2021/12/22 08:22:01;;;;;;;19.77;10.35;;;-3.40;99.90;;;;;;4808051;29;20489;-80
2021/12/22 08:24:27;;;;;;;18.08;10.38;;;-3.30;99.90;;;;;;4824581;29;20103;-80
2021/12/22 08:26:52;;;;;;;15.95;9.20;;;-3.30;99.90;;;;;;4812174;29;20507;-79
2021/12/22 08:29:19;;;;;;;19.65;10.18;;;-3.30;99.90;;;;;;4827386;29;20046;-79
2021/12/22 08:31:45;;;;;;;18.45;10.57;;;-3.20;99.90;;;;;;4816590;29;20091;-79
2021/12/22 08:34:15;;;;;;;20.90;10.02;;;-3.20;99.90;;;;;;4822773;29;20120;-80
2021/12/22 08:39:26;;;;;;;20.73;10.15;;;-3.10;99.90;;;;;;4822655;29;20535;-78
2021/12/22 08:41:53;;;;;;;;;;;-3.10;99.90;;;;;;4799313;29;20190;-78
2021/12/22 08:44:19;;;;;;;17.88;10.00;;;-3.10;99.90;;;;;;4829712;29;19988;-79
2021/12/22 08:46:49;;;;;;;16.90;9.90;;;-3.00;99.90;;;;;;4821796;29;20070;-78
2021/12/22 08:49:17;;;;;;;18.77;10.73;;;-3.00;99.90;;;;;;4838461;29;20150;-79
2021/12/22 08:51:43;;;;;;;20.42;10.68;;;-2.90;99.90;;;;;;4808290;29;20161;-79
2021/12/22 08:54:09;;;;;;;20.40;11.68;;;-2.90;99.90;;;;;;4818718;29;20049;-78
2021/12/22 08:56:36;;;;;;;18.10;10.70;;;-2.80;99.90;;;;;;4815273;29;20116;-78
2021/12/22 08:59:06;;;;;;;15.98;9.63;;;-2.80;99.90;;;;;;4798735;29;20126;-79
2021/12/22 09:01:32;;;;;;;16.83;9.70;;;-2.70;99.90;;;;;;4822477;29;20042;-79
2021/12/22 09:03:58;;;;;;;18.27;9.95;;;-2.70;99.90;;;;;;4806371;29;20057;-79
2021/12/22 09:06:24;;;;;;;17.33;9.82;;;-2.70;99.90;;;;;;4818734;29;20130;-79
2021/12/22 09:08:51;;;;;;;18.17;10.32;;;-2.60;99.90;;;;;;4822749;29;20072;-79
2021/12/22 09:11:16;;;;;;;;;;;-2.60;99.90;;;;;;4820875;29;20052;-79
2021/12/22 09:13:42;;;;;;;19.77;10.82;;;-2.60;99.90;;;;;;4813304;29;20023;-79
2021/12/22 09:16:09;;;;;;;20.48;10.35;;;-2.60;99.90;;;;;;4798997;29;20392;-79
2021/12/22 09:18:36;;;;;;;18.88;10.48;;;-2.50;99.90;;;;;;4823162;29;20049;-78
2021/12/22 09:21:03;;;;;;;26.13;12.10;;;-2.50;99.90;;;;;;4824399;29;20515;-79
2021/12/22 09:23:29;;;;;;;22.17;11.65;;;-2.40;99.90;;;;;;4796527;29;20607;-79
2021/12/22 09:25:55;;;;;;;17.10;10.27;;;-2.40;99.90;;;;;;4810638;29;20057;-79
2021/12/22 09:28:20;;;;;;;20.27;11.60;;;-2.40;99.90;;;;;;4826181;29;20799;-78
2021/12/22 09:30:47;;;;;;;11.88;7.50;;;-2.30;99.90;;;;;;4826055;29;20037;-78
2021/12/22 09:33:16;;;;;;;21.15;10.45;;;-2.30;99.90;;;;;;4778747;29;20038;-76
2021/12/22 09:35:44;;;;;;;18.60;10.98;;;-2.30;99.90;;;;;;4810638;29;20050;-78
2021/12/22 09:38:10;;;;;;;20.75;11.70;;;-2.20;99.90;;;;;;4810377;29;20042;-79
2021/12/22 09:40:36;;;;;;;20.05;11.65;;;-2.10;99.90;;;;;;4825222;29;20088;-79
2021/12/22 09:43:03;;;;;;;21.42;12.25;;;-2.10;99.90;;;;;;4794707;29;20073;-79
2021/12/22 09:45:29;;;;;;;19.20;11.23;;;-2.00;99.90;;;;;;4807937;29;20048;-79
2021/12/22 09:52:15;;;;;;;19.77;10.98;;;-1.90;99.90;;;;;;4824769;29;20085;-84
2021/12/22 09:53:44;;;;;;;21.65;12.73;;;-1.80;99.90;;;;;;4826764;29;20058;-78
2021/12/22 09:56:13;;;;;;;25.08;12.88;;;-1.80;99.90;;;;;;4831453;29;20129;-78
2021/12/22 09:58:40;;;;;;;23.15;10.75;;;-1.70;99.90;;;;;;4835311;29;20042;-79
2021/12/22 10:01:06;;;;;;;20.10;11.52;;;-1.70;99.90;;;;;;4785004;29;20041;-78
2021/12/22 10:03:32;;;;;;;20.47;11.07;;;-1.70;99.90;;;;;;4818866;29;20046;-78
2021/12/22 10:05:57;;;;;;;22.88;11.43;;;-1.60;99.90;;;;;;4826065;29;20301;-78
2021/12/22 10:08:25;;;;;;;21.63;11.80;;;-1.60;99.90;;;;;;4818317;29;20068;-77
2021/12/22 10:11:12;;;;;;;24.27;13.27;;;-1.60;99.90;;;;;;4823759;29;20058;-78
2021/12/22 10:13:43;;;;;;;17.52;9.40;;;-1.50;99.90;;;;;;4833590;29;20105;-79
2021/12/22 10:16:22;;;;;;;22.58;12.75;;;-1.40;99.90;;;;;;4842759;29;20052;-78
2021/12/22 10:19:00;;;;;;;21.33;11.02;;;-1.40;99.90;;;;;;4820267;29;20124;-79
2021/12/22 10:21:26;;;;;;;24.55;12.45;;;-1.30;99.90;;;;;;4843156;29;20045;-79
2021/12/22 10:23:53;;;;;;;22.25;13.00;;;-1.30;99.90;;;;;;4840315;29;20042;-78
2021/12/22 10:26:23;;;;;;;21.30;11.90;;;-1.30;99.90;;;;;;4823600;29;20052;-81
2021/12/22 10:28:55;;;;;;;23.35;12.40;;;-1.20;99.90;;;;;;4827593;29;20083;-79
2021/12/22 10:31:47;;;;;;;21.10;12.25;;;-1.20;99.90;;;;;;4842856;29;20049;-80
2021/12/22 10:34:16;;;;;;;20.95;11.65;;;-1.10;99.90;;;;;;4839567;29;20054;-79
2021/12/22 10:36:48;;;;;;;19.40;11.55;;;-1.10;99.90;;;;;;4841629;29;20403;-79
2021/12/22 10:39:21;;;;;;;20.65;12.23;;;-1.00;99.90;;;;;;4822719;29;20049;-79
2021/12/22 10:41:47;;;;;;;20.33;11.45;;;-0.90;99.90;;;;;;4840783;29;20074;-79
2021/12/22 10:44:13;;;;;;;19.90;11.43;;;-0.80;99.90;;;;;;4823341;29;20401;-79
2021/12/22 10:46:38;;;;;;;22.08;12.25;;;-0.70;99.90;;;;;;4840484;29;20117;-80
2021/12/22 10:49:20;;;;;;;22.42;11.30;;;-0.70;99.90;;;;;;4815743;29;20345;-80
2021/12/22 10:51:56;;;;;;;20.05;11.27;;;-0.70;99.90;;;;;;4830142;29;20064;-80
2021/12/22 10:54:33;;;;;;;19.02;10.20;;;-0.70;99.90;;;;;;4826650;29;20049;-80
2021/12/22 10:57:01;;;;;;;20.38;10.98;;;-0.60;99.90;;;;;;4831716;29;20442;-81
2021/12/22 10:59:26;;;;;;;21.38;11.90;;;-0.50;99.90;;;;;;4856752;29;20037;-80
2021/12/22 11:02:06;;;;;;;17.83;10.57;;;-0.50;99.90;;;;;;4830899;29;20096;-80
2021/12/22 11:04:34;;;;;;;21.33;11.38;;;-0.50;99.90;;;;;;4832632;29;20093;-80
2021/12/22 11:07:15;;;;;;;18.88;10.90;;;-0.50;99.90;;;;;;4824310;29;20411;-80
2021/12/22 11:09:41;;;;;;;20.85;11.65;;;-0.40;99.90;;;;;;4826955;29;20052;-80
2021/12/22 11:12:07;;;;;;;17.65;10.70;;;-0.40;99.90;;;;;;4842431;29;20042;-80
2021/12/22 11:14:47;;;;;;;19.13;11.13;;;-0.30;99.90;;;;;;4837496;29;20128;-80
2021/12/22 11:17:19;;;;;;;19.17;10.40;;;-0.30;99.90;;;;;;4827715;29;20042;-80
2021/12/22 11:19:57;;;;;;;17.88;10.95;;;-0.30;99.90;;;;;;4839123;29;20120;-78
2021/12/22 11:22:47;;;;;;;19.45;11.48;;;-0.30;99.90;;;;;;4847666;29;20119;-80
2021/12/22 11:25:12;;;;;;;17.70;10.45;;;-0.20;99.90;;;;;;4809480;29;20057;-80
2021/12/22 11:27:39;;;;;;;17.43;10.83;;;-0.10;99.90;;;;;;4842388;29;20045;-79
2021/12/22 11:30:06;;;;;;;15.95;9.85;;;0.00;99.90;;;;;;4820318;29;20598;-79
2021/12/22 11:32:33;;;;;;;17.13;10.48;;;0.00;99.90;;;;;;4841049;29;20056;-78
2021/12/22 11:35:04;;;;;;;19.23;11.45;;;0.10;99.90;;;;;;4830655;29;20046;-78
2021/12/22 11:37:30;;;;;;;17.88;10.80;;;0.20;99.90;;;;;;4827902;29;20102;-79
2021/12/22 11:39:57;;;;;;;17.98;10.35;;;0.30;99.90;;;;;;4826191;29;20088;-80
2021/12/22 11:42:29;;;;;;;18.02;10.30;;;0.50;99.90;;;;;;4845895;29;20052;-79
2021/12/22 11:45:10;;;;;;;18.92;11.60;;;0.60;99.90;;;;;;4831184;29;20416;-79
2021/12/22 11:47:41;;;;;;;18.83;11.18;;;0.70;99.90;;;;;;4838771;29;20171;-79
2021/12/22 11:50:18;;;;;;;16.33;10.48;;;0.70;99.90;;;;;;4845717;29;20060;-80
2021/12/22 11:52:53;;;;;;;16.92;10.38;;;0.50;99.90;;;;;;4838645;29;20053;-79
2021/12/22 11:55:36;;;;;;;13.38;8.93;;;0.50;99.90;;;;;;4844088;29;20480;-79
2021/12/22 11:58:35;;;;;;;15.57;9.88;;;0.40;99.90;;;;;;4840918;29;20187;-79
2021/12/22 12:01:09;;;;;;;17.58;10.32;;;0.30;99.90;;;;;;4819681;29;20345;-79
2021/12/22 12:03:43;;;;;;;16.20;9.95;;;0.30;99.90;;;;;;4844382;29;20088;-79
2021/12/22 12:06:16;;;;;;;15.02;9.85;;;0.30;99.90;;;;;;4825282;29;20045;-78
2021/12/22 12:08:54;;;;;;;14.13;10.02;;;0.30;99.90;;;;;;4822412;29;20125;-79
2021/12/22 12:11:56;;;;;;;16.80;9.80;;;0.20;99.90;;;;;;4844431;29;20179;-79
2021/12/22 12:14:33;;;;;;;16.95;9.82;;;0.20;99.90;;;;;;4860721;29;20570;-79
2021/12/22 12:23:29;;;;;;;14.50;9.05;;;0.10;99.90;;;;;;4845415;29;20041;-79
2021/12/22 12:26:02;;;;;;;15.95;9.43;;;0.10;99.90;;;;;;4830440;29;20090;-79
2021/12/22 12:28:28;;;;;;;17.10;9.82;;;0.10;99.90;;;;;;4845406;29;20185;-80
2021/12/22 12:30:56;;;;;;;14.80;9.82;;;0.00;99.90;;;;;;4815473;29;20082;-80
2021/12/22 12:33:23;;;;;;;17.08;10.50;;;0.10;99.90;;;;;;4815960;29;20045;-80
2021/12/22 12:35:54;;;;;;;17.27;10.18;;;0.20;99.90;;;;;;4860746;29;20851;-80
2021/12/22 12:38:30;;;;;;;18.58;10.57;;;0.30;99.90;;;;;;4829951;29;20085;-79
2021/12/22 12:41:00;;;;;;;18.27;9.85;;;0.20;99.90;;;;;;4862335;29;20499;-79
2021/12/22 12:43:48;;;;;;;14.85;9.43;;;0.30;99.90;;;;;;4813800;29;20048;-79
2021/12/22 12:46:20;;;;;;;15.48;9.55;;;0.30;99.90;;;;;;4829028;29;20042;-79
2021/12/22 12:48:50;;;;;;;13.30;9.48;;;0.40;99.90;;;;;;4826860;29;20054;-80
2021/12/22 12:51:19;;;;;;;14.68;9.65;;;0.40;99.90;;;;;;4843579;29;20046;-79
2021/12/22 12:53:50;;;;;;;22.67;14.25;;;0.40;99.90;;;;;;4844467;29;20055;-79
2021/12/22 12:56:18;;;;;;;17.35;10.45;;;0.40;99.90;;;;;;4840716;29;20046;-79
2021/12/22 12:58:56;;;;;;;15.45;9.73;;;0.40;99.90;;;;;;4825433;29;20064;-79
2021/12/22 13:01:46;;;;;;;13.90;8.88;;;0.40;99.90;;;;;;4841582;29;20034;-80
2021/12/22 13:04:32;;;;;;;14.25;9.80;;;0.40;99.90;;;;;;4823635;29;20496;-79
2021/12/22 13:07:07;;;;;;;14.35;9.60;;;0.40;99.90;;;;;;4843979;29;20049;-77